KBNL/BNL METAR and TAF weather

Enter ICAO airport designator
Station Type Date Time Source
KBNL METAR 2021/03/05 19:15 UTC NOAA

KBNL 051915Z AUTO VRB03G10KT 10SM CLR 17/M07 A3005 RMK AO2


Station Type Date Time Source
KBNL Decoded METAR 2021/03/05 19:15 UTC NOAA

Station name not available
Mar 05, 2021 - 02:15 PM EST / 2021.03.05 1915 UTC
Wind: Variable at 3 MPH (3 KT) gusting to 12 MPH (10 KT):0
Visibility: 10 mile(s):0
Sky conditions: clear
Temperature: 62 F (17 C)
Dew Point: 19 F (-7 C)
Relative Humidity: 18%
Pressure (altimeter): 30.05 in. Hg (1017 hPa)
ob: KBNL 051915Z AUTO VRB03G10KT 10SM CLR 17/M07 A3005 RMK AO2
cycle: 19

Station Type Date Time Source
KBNL TAF UTC NOAA

Error!

Example: see airport list